sensor_id;sensor_type;location;lat;lon;timestamp;pressure;altitude;pressure_sealevel;temperature
7389;BMP180;3735;50.136;11.062;2023-07-24T00:00:22;97470.00;;;16.70
7389;BMP180;3735;50.136;11.062;2023-07-24T00:02:48;97468.00;;;16.70
7389;BMP180;3735;50.136;11.062;2023-07-24T00:05:13;97462.00;;;16.60
7389;BMP180;3735;50.136;11.062;2023-07-24T00:07:39;97472.00;;;16.60
7389;BMP180;3735;50.136;11.062;2023-07-24T00:10:05;97472.00;;;16.60
7389;BMP180;3735;50.136;11.062;2023-07-24T00:12:31;97468.00;;;16.60
7389;BMP180;3735;50.136;11.062;2023-07-24T00:14:57;97464.00;;;16.50
7389;BMP180;3735;50.136;11.062;2023-07-24T00:17:23;97469.00;;;16.40
7389;BMP180;3735;50.136;11.062;2023-07-24T00:19:49;97481.00;;;16.40
7389;BMP180;3735;50.136;11.062;2023-07-24T00:22:15;97482.00;;;16.50
7389;BMP180;3735;50.136;11.062;2023-07-24T00:24:41;97475.00;;;16.70
7389;BMP180;3735;50.136;11.062;2023-07-24T00:27:06;97481.00;;;16.90
7389;BMP180;3735;50.136;11.062;2023-07-24T00:29:32;97491.00;;;17.10
7389;BMP180;3735;50.136;11.062;2023-07-24T00:31:58;97483.00;;;17.30
7389;BMP180;3735;50.136;11.062;2023-07-24T00:34:23;97475.00;;;17.30
7389;BMP180;3735;50.136;11.062;2023-07-24T00:36:49;97474.00;;;17.40
7389;BMP180;3735;50.136;11.062;2023-07-24T00:39:15;97478.00;;;17.40
7389;BMP180;3735;50.136;11.062;2023-07-24T00:41:41;97477.00;;;17.40
7389;BMP180;3735;50.136;11.062;2023-07-24T00:44:07;97485.00;;;17.30
7389;BMP180;3735;50.136;11.062;2023-07-24T00:46:35;97479.00;;;17.20
7389;BMP180;3735;50.136;11.062;2023-07-24T00:49:04;97488.00;;;17.20
7389;BMP180;3735;50.136;11.062;2023-07-24T00:51:31;97496.00;;;17.20
7389;BMP180;3735;50.136;11.062;2023-07-24T00:54:02;97492.00;;;17.10
7389;BMP180;3735;50.136;11.062;2023-07-24T00:56:30;97496.00;;;17.00
7389;BMP180;3735;50.136;11.062;2023-07-24T00:58:57;97493.00;;;17.00
7389;BMP180;3735;50.136;11.062;2023-07-24T01:01:24;97484.00;;;17.00
7389;BMP180;3735;50.136;11.062;2023-07-24T01:03:52;97484.00;;;17.00
7389;BMP180;3735;50.136;11.062;2023-07-24T01:06:18;97473.00;;;17.00
7389;BMP180;3735;50.136;11.062;2023-07-24T01:08:44;97463.00;;;17.00
7389;BMP180;3735;50.136;11.062;2023-07-24T01:11:17;97468.00;;;16.90
7389;BMP180;3735;50.136;11.062;2023-07-24T01:14:08;97457.00;;;16.90
7389;BMP180;3735;50.136;11.062;2023-07-24T01:16:42;97435.00;;;17.00
7389;BMP180;3735;50.136;11.062;2023-07-24T01:19:21;97447.00;;;16.90
7389;BMP180;3735;50.136;11.062;2023-07-24T01:25:11;97435.00;;;16.90
7389;BMP180;3735;50.136;11.062;2023-07-24T01:27:45;97432.00;;;16.80
7389;BMP180;3735;50.136;11.062;2023-07-24T01:30:13;97437.00;;;16.70
7389;BMP180;3735;50.136;11.062;2023-07-24T01:32:39;97439.00;;;16.60
7389;BMP180;3735;50.136;11.062;2023-07-24T01:35:06;97434.00;;;16.60
7389;BMP180;3735;50.136;11.062;2023-07-24T01:37:34;97413.00;;;16.60
7389;BMP180;3735;50.136;11.062;2023-07-24T01:40:02;97426.00;;;16.70
7389;BMP180;3735;50.136;11.062;2023-07-24T01:42:29;97415.00;;;16.80
7389;BMP180;3735;50.136;11.062;2023-07-24T01:44:55;97416.00;;;16.80
7389;BMP180;3735;50.136;11.062;2023-07-24T01:47:21;97419.00;;;16.90
7389;BMP180;3735;50.136;11.062;2023-07-24T01:49:48;97413.00;;;17.00
7389;BMP180;3735;50.136;11.062;2023-07-24T01:52:17;97405.00;;;17.10
7389;BMP180;3735;50.136;11.062;2023-07-24T01:54:43;97412.00;;;17.20
7389;BMP180;3735;50.136;11.062;2023-07-24T01:57:09;97408.00;;;17.30
7389;BMP180;3735;50.136;11.062;2023-07-24T01:59:34;97408.00;;;17.40
7389;BMP180;3735;50.136;11.062;2023-07-24T02:02:00;97412.00;;;17.40
7389;BMP180;3735;50.136;11.062;2023-07-24T02:04:26;97410.00;;;17.40
7389;BMP180;3735;50.136;11.062;2023-07-24T02:06:51;97406.00;;;17.50
7389;BMP180;3735;50.136;11.062;2023-07-24T02:09:20;97402.00;;;17.50
7389;BMP180;3735;50.136;11.062;2023-07-24T02:11:46;97412.00;;;17.50
7389;BMP180;3735;50.136;11.062;2023-07-24T02:14:14;97393.00;;;17.50
7389;BMP180;3735;50.136;11.062;2023-07-24T02:16:40;97402.00;;;17.40
7389;BMP180;3735;50.136;11.062;2023-07-24T02:19:06;97391.00;;;17.30
7389;BMP180;3735;50.136;11.062;2023-07-24T02:21:32;97390.00;;;17.20
7389;BMP180;3735;50.136;11.062;2023-07-24T02:23:58;97387.00;;;17.10
7389;BMP180;3735;50.136;11.062;2023-07-24T02:26:24;97390.00;;;17.00
7389;BMP180;3735;50.136;11.062;2023-07-24T02:28:49;97376.00;;;16.90
7389;BMP180;3735;50.136;11.062;2023-07-24T02:31:15;97354.00;;;16.70
7389;BMP180;3735;50.136;11.062;2023-07-24T02:33:41;97382.00;;;16.50
7389;BMP180;3735;50.136;11.062;2023-07-24T02:36:07;97389.00;;;16.50
7389;BMP180;3735;50.136;11.062;2023-07-24T02:38:33;97387.00;;;16.40
7389;BMP180;3735;50.136;11.062;2023-07-24T02:40:59;97388.00;;;16.20
7389;BMP180;3735;50.136;11.062;2023-07-24T02:43:24;97380.00;;;16.20
7389;BMP180;3735;50.136;11.062;2023-07-24T02:45:50;97386.00;;;16.10
7389;BMP180;3735;50.136;11.062;2023-07-24T02:48:16;97385.00;;;16.00
7389;BMP180;3735;50.136;11.062;2023-07-24T02:50:42;97389.00;;;15.90
7389;BMP180;3735;50.136;11.062;2023-07-24T02:53:07;97382.00;;;15.80
7389;BMP180;3735;50.136;11.062;2023-07-24T02:55:33;97389.00;;;15.70
7389;BMP180;3735;50.136;11.062;2023-07-24T02:57:59;97386.00;;;15.60
7389;BMP180;3735;50.136;11.062;2023-07-24T03:00:24;97383.00;;;15.50
7389;BMP180;3735;50.136;11.062;2023-07-24T03:02:52;97387.00;;;15.50
7389;BMP180;3735;50.136;11.062;2023-07-24T03:05:18;97371.00;;;15.40
7389;BMP180;3735;50.136;11.062;2023-07-24T03:07:43;97377.00;;;15.40
7389;BMP180;3735;50.136;11.062;2023-07-24T03:10:09;97370.00;;;15.40
7389;BMP180;3735;50.136;11.062;2023-07-24T03:12:35;97364.00;;;15.30
7389;BMP180;3735;50.136;11.062;2023-07-24T03:15:01;97377.00;;;15.40
7389;BMP180;3735;50.136;11.062;2023-07-24T03:17:27;97371.00;;;15.40
7389;BMP180;3735;50.136;11.062;2023-07-24T03:19:54;97377.00;;;15.40
7389;BMP180;3735;50.136;11.062;2023-07-24T03:22:20;97381.00;;;15.40
7389;BMP180;3735;50.136;11.062;2023-07-24T03:24:46;97370.00;;;15.40
7389;BMP180;3735;50.136;11.062;2023-07-24T03:27:12;97380.00;;;15.40
7389;BMP180;3735;50.136;11.062;2023-07-24T03:29:38;97377.00;;;15.30
7389;BMP180;3735;50.136;11.062;2023-07-24T03:32:05;97383.00;;;15.30
7389;BMP180;3735;50.136;11.062;2023-07-24T03:34:31;97385.00;;;15.20
7389;BMP180;3735;50.136;11.062;2023-07-24T03:36:56;97377.00;;;15.30
7389;BMP180;3735;50.136;11.062;2023-07-24T03:39:22;97368.00;;;15.20
7389;BMP180;3735;50.136;11.062;2023-07-24T03:41:48;97367.00;;;15.20
7389;BMP180;3735;50.136;11.062;2023-07-24T03:44:13;97362.00;;;15.20
7389;BMP180;3735;50.136;11.062;2023-07-24T03:46:39;97359.00;;;15.20
7389;BMP180;3735;50.136;11.062;2023-07-24T03:49:05;97367.00;;;15.20
7389;BMP180;3735;50.136;11.062;2023-07-24T03:51:31;97364.00;;;15.20
7389;BMP180;3735;50.136;11.062;2023-07-24T03:53:57;97371.00;;;15.30
7389;BMP180;3735;50.136;11.062;2023-07-24T03:56:23;97374.00;;;15.30
7389;BMP180;3735;50.136;11.062;2023-07-24T03:58:49;97366.00;;;15.40
7389;BMP180;3735;50.136;11.062;2023-07-24T04:01:14;97363.00;;;15.60
7389;BMP180;3735;50.136;11.062;2023-07-24T04:03:40;97360.00;;;15.70
7389;BMP180;3735;50.136;11.062;2023-07-24T04:06:09;97345.00;;;15.90
7389;BMP180;3735;50.136;11.062;2023-07-24T04:08:35;97342.00;;;16.10
7389;BMP180;3735;50.136;11.062;2023-07-24T04:11:01;97349.00;;;16.20
7389;BMP180;3735;50.136;11.062;2023-07-24T04:13:26;97339.00;;;16.40
7389;BMP180;3735;50.136;11.062;2023-07-24T04:15:52;97336.00;;;16.50
7389;BMP180;3735;50.136;11.062;2023-07-24T04:18:18;97328.00;;;16.70
7389;BMP180;3735;50.136;11.062;2023-07-24T04:20:43;97324.00;;;16.70
7389;BMP180;3735;50.136;11.062;2023-07-24T04:23:09;97326.00;;;16.80
7389;BMP180;3735;50.136;11.062;2023-07-24T04:25:35;97327.00;;;16.70
7389;BMP180;3735;50.136;11.062;2023-07-24T04:28:01;97324.00;;;16.70
7389;BMP180;3735;50.136;11.062;2023-07-24T04:30:26;97320.00;;;16.70
7389;BMP180;3735;50.136;11.062;2023-07-24T04:32:52;97325.00;;;16.70
7389;BMP180;3735;50.136;11.062;2023-07-24T04:35:18;97310.00;;;16.90
7389;BMP180;3735;50.136;11.062;2023-07-24T04:37:43;97323.00;;;16.90
7389;BMP180;3735;50.136;11.062;2023-07-24T04:40:10;97323.00;;;17.00
7389;BMP180;3735;50.136;11.062;2023-07-24T04:42:36;97317.00;;;17.20
7389;BMP180;3735;50.136;11.062;2023-07-24T04:45:02;97309.00;;;17.30
7389;BMP180;3735;50.136;11.062;2023-07-24T04:47:28;97321.00;;;17.30
7389;BMP180;3735;50.136;11.062;2023-07-24T04:49:53;97325.00;;;17.70
7389;BMP180;3735;50.136;11.062;2023-07-24T04:52:20;97326.00;;;18.10
7389;BMP180;3735;50.136;11.062;2023-07-24T04:54:46;97311.00;;;18.30
7389;BMP180;3735;50.136;11.062;2023-07-24T04:57:12;97324.00;;;18.50
7389;BMP180;3735;50.136;11.062;2023-07-24T04:59:38;97330.00;;;19.20
7389;BMP180;3735;50.136;11.062;2023-07-24T05:02:03;97325.00;;;19.90
7389;BMP180;3735;50.136;11.062;2023-07-24T05:04:29;97328.00;;;20.40
7389;BMP180;3735;50.136;11.062;2023-07-24T05:07:03;97324.00;;;21.40
7389;BMP180;3735;50.136;11.062;2023-07-24T05:09:28;97309.00;;;22.60
7389;BMP180;3735;50.136;11.062;2023-07-24T05:11:54;97317.00;;;23.50
7389;BMP180;3735;50.136;11.062;2023-07-24T05:14:22;97310.00;;;24.00
7389;BMP180;3735;50.136;11.062;2023-07-24T05:16:48;97314.00;;;24.90
7389;BMP180;3735;50.136;11.062;2023-07-24T05:19:14;97308.00;;;25.30
7389;BMP180;3735;50.136;11.062;2023-07-24T05:21:40;97305.00;;;25.60
7389;BMP180;3735;50.136;11.062;2023-07-24T05:24:06;97310.00;;;26.60
7389;BMP180;3735;50.136;11.062;2023-07-24T05:26:31;97320.00;;;27.20
7389;BMP180;3735;50.136;11.062;2023-07-24T05:28:57;97298.00;;;27.50
7389;BMP180;3735;50.136;11.062;2023-07-24T05:31:23;97294.00;;;27.00
7389;BMP180;3735;50.136;11.062;2023-07-24T05:33:48;97284.00;;;26.30
7389;BMP180;3735;50.136;11.062;2023-07-24T05:36:14;97298.00;;;25.30
7389;BMP180;3735;50.136;11.062;2023-07-24T05:38:40;97306.00;;;25.10
7389;BMP180;3735;50.136;11.062;2023-07-24T05:41:06;97300.00;;;25.40
7389;BMP180;3735;50.136;11.062;2023-07-24T05:43:31;97305.00;;;25.50
7389;BMP180;3735;50.136;11.062;2023-07-24T05:45:59;97309.00;;;25.70
7389;BMP180;3735;50.136;11.062;2023-07-24T05:48:25;97294.00;;;25.90
7389;BMP180;3735;50.136;11.062;2023-07-24T05:50:51;97302.00;;;26.20
7389;BMP180;3735;50.136;11.062;2023-07-24T05:53:17;97284.00;;;26.20
7389;BMP180;3735;50.136;11.062;2023-07-24T05:55:43;97290.00;;;26.90
7389;BMP180;3735;50.136;11.062;2023-07-24T05:58:10;97290.00;;;27.00
7389;BMP180;3735;50.136;11.062;2023-07-24T06:00:36;97288.00;;;26.60
7389;BMP180;3735;50.136;11.062;2023-07-24T06:03:04;97289.00;;;26.30
7389;BMP180;3735;50.136;11.062;2023-07-24T06:05:30;97283.00;;;25.90
7389;BMP180;3735;50.136;11.062;2023-07-24T06:07:56;97277.00;;;25.30
7389;BMP180;3735;50.136;11.062;2023-07-24T06:10:21;97281.00;;;24.80
7389;BMP180;3735;50.136;11.062;2023-07-24T06:12:47;97288.00;;;24.20
7389;BMP180;3735;50.136;11.062;2023-07-24T06:15:13;97289.00;;;24.50
7389;BMP180;3735;50.136;11.062;2023-07-24T06:17:39;97299.00;;;25.10
7389;BMP180;3735;50.136;11.062;2023-07-24T06:20:06;97290.00;;;26.30
7389;BMP180;3735;50.136;11.062;2023-07-24T06:22:32;97277.00;;;27.70
7389;BMP180;3735;50.136;11.062;2023-07-24T06:24:58;97280.00;;;28.60
7389;BMP180;3735;50.136;11.062;2023-07-24T06:27:27;97283.00;;;28.40
7389;BMP180;3735;50.136;11.062;2023-07-24T06:29:52;97264.00;;;28.40
7389;BMP180;3735;50.136;11.062;2023-07-24T06:32:18;97254.00;;;29.10
7389;BMP180;3735;50.136;11.062;2023-07-24T06:34:44;97264.00;;;30.00
7389;BMP180;3735;50.136;11.062;2023-07-24T06:37:09;97261.00;;;30.50
7389;BMP180;3735;50.136;11.062;2023-07-24T06:39:35;97268.00;;;30.30
7389;BMP180;3735;50.136;11.062;2023-07-24T06:42:01;97269.00;;;30.30
7389;BMP180;3735;50.136;11.062;2023-07-24T06:44:27;97272.00;;;29.90
7389;BMP180;3735;50.136;11.062;2023-07-24T06:46:52;97276.00;;;30.00
7389;BMP180;3735;50.136;11.062;2023-07-24T06:49:18;97269.00;;;29.70
7389;BMP180;3735;50.136;11.062;2023-07-24T06:51:44;97268.00;;;28.50
7389;BMP180;3735;50.136;11.062;2023-07-24T06:54:09;97278.00;;;27.70
7389;BMP180;3735;50.136;11.062;2023-07-24T06:56:36;97281.00;;;27.00
7389;BMP180;3735;50.136;11.062;2023-07-24T06:59:02;97266.00;;;26.60
7389;BMP180;3735;50.136;11.062;2023-07-24T07:01:28;97266.00;;;26.60
7389;BMP180;3735;50.136;11.062;2023-07-24T07:03:53;97270.00;;;27.10
7389;BMP180;3735;50.136;11.062;2023-07-24T07:06:19;97264.00;;;27.70
7389;BMP180;3735;50.136;11.062;2023-07-24T07:08:45;97276.00;;;28.50
7389;BMP180;3735;50.136;11.062;2023-07-24T07:11:11;97270.00;;;28.50
7389;BMP180;3735;50.136;11.062;2023-07-24T07:13:36;97281.00;;;28.00
7389;BMP180;3735;50.136;11.062;2023-07-24T07:16:02;97273.00;;;27.70
7389;BMP180;3735;50.136;11.062;2023-07-24T07:18:28;97295.00;;;26.30
7389;BMP180;3735;50.136;11.062;2023-07-24T07:20:54;97303.00;;;25.70
7389;BMP180;3735;50.136;11.062;2023-07-24T07:23:21;97279.00;;;25.00
7389;BMP180;3735;50.136;11.062;2023-07-24T07:25:47;97278.00;;;24.90
7389;BMP180;3735;50.136;11.062;2023-07-24T07:28:16;97278.00;;;24.80
7389;BMP180;3735;50.136;11.062;2023-07-24T07:30:42;97285.00;;;24.70
7389;BMP180;3735;50.136;11.062;2023-07-24T07:33:09;97268.00;;;24.80
7389;BMP180;3735;50.136;11.062;2023-07-24T07:35:36;97263.00;;;25.30
7389;BMP180;3735;50.136;11.062;2023-07-24T07:38:03;97254.00;;;26.40
7389;BMP180;3735;50.136;11.062;2023-07-24T07:40:29;97245.00;;;27.10
7389;BMP180;3735;50.136;11.062;2023-07-24T07:42:56;97236.00;;;26.50
7389;BMP180;3735;50.136;11.062;2023-07-24T07:45:23;97232.00;;;26.50
7389;BMP180;3735;50.136;11.062;2023-07-24T07:47:50;97235.00;;;27.40
7389;BMP180;3735;50.136;11.062;2023-07-24T07:50:15;97229.00;;;27.40
7389;BMP180;3735;50.136;11.062;2023-07-24T07:52:41;97235.00;;;27.10
7389;BMP180;3735;50.136;11.062;2023-07-24T07:55:08;97236.00;;;26.70
7389;BMP180;3735;50.136;11.062;2023-07-24T07:57:37;97233.00;;;26.50
7389;BMP180;3735;50.136;11.062;2023-07-24T08:00:05;97225.00;;;26.50
7389;BMP180;3735;50.136;11.062;2023-07-24T08:02:33;97240.00;;;26.60
7389;BMP180;3735;50.136;11.062;2023-07-24T08:05:00;97233.00;;;25.70
7389;BMP180;3735;50.136;11.062;2023-07-24T08:07:25;97227.00;;;25.80
7389;BMP180;3735;50.136;11.062;2023-07-24T08:09:51;97218.00;;;26.10
7389;BMP180;3735;50.136;11.062;2023-07-24T08:12:17;97224.00;;;26.10
7389;BMP180;3735;50.136;11.062;2023-07-24T08:14:42;97224.00;;;26.10
7389;BMP180;3735;50.136;11.062;2023-07-24T08:17:08;97231.00;;;26.20
7389;BMP180;3735;50.136;11.062;2023-07-24T08:19:34;97234.00;;;26.20
7389;BMP180;3735;50.136;11.062;2023-07-24T08:22:00;97230.00;;;26.50
7389;BMP180;3735;50.136;11.062;2023-07-24T08:24:26;97234.00;;;26.40
7389;BMP180;3735;50.136;11.062;2023-07-24T08:26:51;97228.00;;;25.90
7389;BMP180;3735;50.136;11.062;2023-07-24T08:29:17;97229.00;;;25.80
7389;BMP180;3735;50.136;11.062;2023-07-24T08:31:43;97238.00;;;25.70
7389;BMP180;3735;50.136;11.062;2023-07-24T08:34:09;97239.00;;;25.30
7389;BMP180;3735;50.136;11.062;2023-07-24T08:36:35;97231.00;;;25.50
7389;BMP180;3735;50.136;11.062;2023-07-24T08:39:03;97227.00;;;25.60
7389;BMP180;3735;50.136;11.062;2023-07-24T08:41:29;97223.00;;;25.50
7389;BMP180;3735;50.136;11.062;2023-07-24T08:43:55;97226.00;;;25.60
7389;BMP180;3735;50.136;11.062;2023-07-24T08:46:22;97219.00;;;25.80
7389;BMP180;3735;50.136;11.062;2023-07-24T08:48:48;97231.00;;;26.00
7389;BMP180;3735;50.136;11.062;2023-07-24T08:51:17;97228.00;;;25.70
7389;BMP180;3735;50.136;11.062;2023-07-24T08:53:44;97244.00;;;26.00
7389;BMP180;3735;50.136;11.062;2023-07-24T08:56:12;97260.00;;;25.70
7389;BMP180;3735;50.136;11.062;2023-07-24T08:58:38;97262.00;;;24.80
7389;BMP180;3735;50.136;11.062;2023-07-24T09:01:06;97270.00;;;24.50
7389;BMP180;3735;50.136;11.062;2023-07-24T09:03:33;97268.00;;;24.30
7389;BMP180;3735;50.136;11.062;2023-07-24T09:05:59;97262.00;;;24.50
7389;BMP180;3735;50.136;11.062;2023-07-24T09:08:37;97243.00;;;25.30
7389;BMP180;3735;50.136;11.062;2023-07-24T09:11:04;97228.00;;;26.20
7389;BMP180;3735;50.136;11.062;2023-07-24T09:13:31;97222.00;;;27.20
7389;BMP180;3735;50.136;11.062;2023-07-24T09:15:57;97216.00;;;28.00
7389;BMP180;3735;50.136;11.062;2023-07-24T09:18:25;97213.00;;;28.70
7389;BMP180;3735;50.136;11.062;2023-07-24T09:20:51;97203.00;;;28.50
7389;BMP180;3735;50.136;11.062;2023-07-24T09:23:27;97212.00;;;28.00
7389;BMP180;3735;50.136;11.062;2023-07-24T09:25:53;97248.00;;;26.60
7389;BMP180;3735;50.136;11.062;2023-07-24T09:28:19;97238.00;;;25.60
7389;BMP180;3735;50.136;11.062;2023-07-24T09:30:55;97229.00;;;24.50
7389;BMP180;3735;50.136;11.062;2023-07-24T09:36:03;97219.00;;;23.30
7389;BMP180;3735;50.136;11.062;2023-07-24T09:38:30;97235.00;;;22.80
7389;BMP180;3735;50.136;11.062;2023-07-24T09:40:56;97231.00;;;22.60
7389;BMP180;3735;50.136;11.062;2023-07-24T09:43:24;97243.00;;;22.20
7389;BMP180;3735;50.136;11.062;2023-07-24T09:45:52;97265.00;;;21.80
7389;BMP180;3735;50.136;11.062;2023-07-24T09:48:20;97289.00;;;21.00
7389;BMP180;3735;50.136;11.062;2023-07-24T09:50:52;97327.00;;;20.10
7389;BMP180;3735;50.136;11.062;2023-07-24T09:53:43;97317.00;;;19.30
7389;BMP180;3735;50.136;11.062;2023-07-24T09:56:09;97309.00;;;18.90
7389;BMP180;3735;50.136;11.062;2023-07-24T09:58:38;97329.00;;;18.70
7389;BMP180;3735;50.136;11.062;2023-07-24T10:01:07;97313.00;;;18.60
7389;BMP180;3735;50.136;11.062;2023-07-24T10:03:49;97308.00;;;18.30
7389;BMP180;3735;50.136;11.062;2023-07-24T10:06:16;97281.00;;;18.10
7389;BMP180;3735;50.136;11.062;2023-07-24T10:08:43;97278.00;;;18.10
7389;BMP180;3735;50.136;11.062;2023-07-24T10:11:14;97257.00;;;18.10
7389;BMP180;3735;50.136;11.062;2023-07-24T10:13:43;97248.00;;;18.10
7389;BMP180;3735;50.136;11.062;2023-07-24T10:16:09;97239.00;;;18.20
7389;BMP180;3735;50.136;11.062;2023-07-24T10:18:44;97220.00;;;18.40
7389;BMP180;3735;50.136;11.062;2023-07-24T10:21:11;97209.00;;;18.80
7389;BMP180;3735;50.136;11.062;2023-07-24T10:23:42;97202.00;;;19.20
7389;BMP180;3735;50.136;11.062;2023-07-24T10:26:09;97214.00;;;19.60
7389;BMP180;3735;50.136;11.062;2023-07-24T10:28:40;97216.00;;;20.10
7389;BMP180;3735;50.136;11.062;2023-07-24T10:31:18;97208.00;;;20.50
7389;BMP180;3735;50.136;11.062;2023-07-24T10:33:45;97215.00;;;21.10
7389;BMP180;3735;50.136;11.062;2023-07-24T10:36:12;97211.00;;;21.50
7389;BMP180;3735;50.136;11.062;2023-07-24T10:38:43;97215.00;;;21.80
7389;BMP180;3735;50.136;11.062;2023-07-24T10:41:11;97226.00;;;22.30
7389;BMP180;3735;50.136;11.062;2023-07-24T10:43:49;97207.00;;;21.90
7389;BMP180;3735;50.136;11.062;2023-07-24T10:46:17;97203.00;;;21.90
7389;BMP180;3735;50.136;11.062;2023-07-24T10:48:49;97220.00;;;22.00
7389;BMP180;3735;50.136;11.062;2023-07-24T10:51:15;97216.00;;;22.50
7389;BMP180;3735;50.136;11.062;2023-07-24T10:53:48;97207.00;;;22.70
7389;BMP180;3735;50.136;11.062;2023-07-24T10:56:16;97198.00;;;23.00
7389;BMP180;3735;50.136;11.062;2023-07-24T10:58:42;97198.00;;;23.60
7389;BMP180;3735;50.136;11.062;2023-07-24T11:01:09;97203.00;;;23.20
7389;BMP180;3735;50.136;11.062;2023-07-24T11:03:39;97201.00;;;23.60
7389;BMP180;3735;50.136;11.062;2023-07-24T11:06:12;97197.00;;;24.10
7389;BMP180;3735;50.136;11.062;2023-07-24T11:08:38;97203.00;;;23.90
7389;BMP180;3735;50.136;11.062;2023-07-24T11:11:08;97201.00;;;23.90
7389;BMP180;3735;50.136;11.062;2023-07-24T11:13:34;97195.00;;;24.30
7389;BMP180;3735;50.136;11.062;2023-07-24T11:16:06;97193.00;;;25.10
7389;BMP180;3735;50.136;11.062;2023-07-24T11:18:32;97190.00;;;25.50
7389;BMP180;3735;50.136;11.062;2023-07-24T11:20:59;97192.00;;;25.50
7389;BMP180;3735;50.136;11.062;2023-07-24T11:23:28;97187.00;;;25.40
7389;BMP180;3735;50.136;11.062;2023-07-24T11:25:54;97174.00;;;25.20
7389;BMP180;3735;50.136;11.062;2023-07-24T11:28:20;97171.00;;;25.10
7389;BMP180;3735;50.136;11.062;2023-07-24T11:30:46;97171.00;;;25.00
7389;BMP180;3735;50.136;11.062;2023-07-24T11:33:15;97165.00;;;24.70
7389;BMP180;3735;50.136;11.062;2023-07-24T11:35:42;97174.00;;;24.70
7389;BMP180;3735;50.136;11.062;2023-07-24T11:38:09;97169.00;;;24.70
7389;BMP180;3735;50.136;11.062;2023-07-24T11:40:41;97171.00;;;24.30
7389;BMP180;3735;50.136;11.062;2023-07-24T11:43:23;97169.00;;;24.30
7389;BMP180;3735;50.136;11.062;2023-07-24T11:45:52;97171.00;;;25.20
7389;BMP180;3735;50.136;11.062;2023-07-24T11:48:20;97167.00;;;24.80
7389;BMP180;3735;50.136;11.062;2023-07-24T11:50:52;97158.00;;;25.20
7389;BMP180;3735;50.136;11.062;2023-07-24T11:55:50;97131.00;;;26.10
7389;BMP180;3735;50.136;11.062;2023-07-24T11:58:18;97134.00;;;26.20
7389;BMP180;3735;50.136;11.062;2023-07-24T12:00:46;97148.00;;;26.20
7389;BMP180;3735;50.136;11.062;2023-07-24T12:03:13;97163.00;;;26.00
7389;BMP180;3735;50.136;11.062;2023-07-24T12:05:43;97154.00;;;25.90
7389;BMP180;3735;50.136;11.062;2023-07-24T12:08:13;97157.00;;;25.80
7389;BMP180;3735;50.136;11.062;2023-07-24T12:10:40;97142.00;;;25.60
7389;BMP180;3735;50.136;11.062;2023-07-24T12:13:07;97143.00;;;25.20
7389;BMP180;3735;50.136;11.062;2023-07-24T12:15:33;97143.00;;;25.20
7389;BMP180;3735;50.136;11.062;2023-07-24T12:18:04;97131.00;;;25.50
7389;BMP180;3735;50.136;11.062;2023-07-24T12:20:30;97123.00;;;25.80
7389;BMP180;3735;50.136;11.062;2023-07-24T12:22:57;97107.00;;;25.90
7389;BMP180;3735;50.136;11.062;2023-07-24T12:25:23;97103.00;;;25.90
7389;BMP180;3735;50.136;11.062;2023-07-24T12:27:52;97111.00;;;25.60
7389;BMP180;3735;50.136;11.062;2023-07-24T12:30:18;97107.00;;;25.90
7389;BMP180;3735;50.136;11.062;2023-07-24T12:32:45;97108.00;;;25.80
7389;BMP180;3735;50.136;11.062;2023-07-24T12:35:11;97113.00;;;25.00
7389;BMP180;3735;50.136;11.062;2023-07-24T12:37:37;97113.00;;;25.40
7389;BMP180;3735;50.136;11.062;2023-07-24T12:40:06;97116.00;;;25.20
7389;BMP180;3735;50.136;11.062;2023-07-24T12:42:32;97120.00;;;25.30
7389;BMP180;3735;50.136;11.062;2023-07-24T12:44:58;97124.00;;;25.40
7389;BMP180;3735;50.136;11.062;2023-07-24T12:47:23;97119.00;;;24.70
7389;BMP180;3735;50.136;11.062;2023-07-24T12:49:49;97111.00;;;24.70
7389;BMP180;3735;50.136;11.062;2023-07-24T12:52:17;97111.00;;;25.10
7389;BMP180;3735;50.136;11.062;2023-07-24T12:54:43;97098.00;;;25.60
7389;BMP180;3735;50.136;11.062;2023-07-24T12:57:08;97093.00;;;26.20
7389;BMP180;3735;50.136;11.062;2023-07-24T12:59:34;97082.00;;;26.30
7389;BMP180;3735;50.136;11.062;2023-07-24T13:02:00;97064.00;;;26.10
7389;BMP180;3735;50.136;11.062;2023-07-24T13:04:26;97066.00;;;26.00
7389;BMP180;3735;50.136;11.062;2023-07-24T13:06:51;97082.00;;;26.00
7389;BMP180;3735;50.136;11.062;2023-07-24T13:09:19;97084.00;;;26.10
7389;BMP180;3735;50.136;11.062;2023-07-24T13:11:45;97063.00;;;25.80
7389;BMP180;3735;50.136;11.062;2023-07-24T13:14:14;97074.00;;;25.50
7389;BMP180;3735;50.136;11.062;2023-07-24T13:16:40;97088.00;;;25.50
7389;BMP180;3735;50.136;11.062;2023-07-24T13:19:06;97085.00;;;25.40
7389;BMP180;3735;50.136;11.062;2023-07-24T13:21:32;97074.00;;;25.60
7389;BMP180;3735;50.136;11.062;2023-07-24T13:23:58;97061.00;;;26.20
7389;BMP180;3735;50.136;11.062;2023-07-24T13:26:24;97066.00;;;26.30
7389;BMP180;3735;50.136;11.062;2023-07-24T13:28:50;97055.00;;;26.40
7389;BMP180;3735;50.136;11.062;2023-07-24T13:31:20;97060.00;;;26.50
7389;BMP180;3735;50.136;11.062;2023-07-24T13:33:47;97053.00;;;26.50
7389;BMP180;3735;50.136;11.062;2023-07-24T13:36:13;97038.00;;;27.10
7389;BMP180;3735;50.136;11.062;2023-07-24T13:38:40;97042.00;;;27.70
7389;BMP180;3735;50.136;11.062;2023-07-24T13:41:07;97023.00;;;27.50
7389;BMP180;3735;50.136;11.062;2023-07-24T13:43:34;97011.00;;;27.20
7389;BMP180;3735;50.136;11.062;2023-07-24T13:46:02;97017.00;;;28.00
7389;BMP180;3735;50.136;11.062;2023-07-24T13:48:29;97001.00;;;27.20
7389;BMP180;3735;50.136;11.062;2023-07-24T13:50:55;97006.00;;;27.90
7389;BMP180;3735;50.136;11.062;2023-07-24T13:53:21;96993.00;;;27.90
7389;BMP180;3735;50.136;11.062;2023-07-24T13:55:50;96987.00;;;28.00
7389;BMP180;3735;50.136;11.062;2023-07-24T13:58:16;96996.00;;;27.50
7389;BMP180;3735;50.136;11.062;2023-07-24T14:00:42;96987.00;;;27.40
7389;BMP180;3735;50.136;11.062;2023-07-24T14:03:08;96978.00;;;27.40
7389;BMP180;3735;50.136;11.062;2023-07-24T14:05:34;96966.00;;;27.80
7389;BMP180;3735;50.136;11.062;2023-07-24T14:08:02;96967.00;;;27.90
7389;BMP180;3735;50.136;11.062;2023-07-24T14:10:29;96958.00;;;28.10
7389;BMP180;3735;50.136;11.062;2023-07-24T14:12:54;96964.00;;;27.70
7389;BMP180;3735;50.136;11.062;2023-07-24T14:15:20;96968.00;;;26.70
7389;BMP180;3735;50.136;11.062;2023-07-24T14:17:46;96964.00;;;26.40
7389;BMP180;3735;50.136;11.062;2023-07-24T14:20:12;96949.00;;;26.50
7389;BMP180;3735;50.136;11.062;2023-07-24T14:22:39;96945.00;;;26.20
7389;BMP180;3735;50.136;11.062;2023-07-24T14:25:05;96938.00;;;26.30
7389;BMP180;3735;50.136;11.062;2023-07-24T14:27:32;96926.00;;;26.50